Time;durP1;ratioP1;P1;durP2;ratioP2;P2;SDS_P1;SDS_P2;PMS_P1;PMS_P2;Temp;Humidity;BMP_temperature;BMP_pressure;BME280_temperature;BME280_humidity;BME280_pressure;Samples;Min_cycle;Max_cycle;Signal;HPM_P1;HPM_P2
2023/07/25 00:01:29;;;;;;;4.50;3.03;;;18.50;99.90;;;;;;4992913;28;20053;-67
2023/07/25 00:04:15;;;;;;;3.85;2.88;;;18.50;99.90;;;;;;4993023;28;20080;-67
2023/07/25 00:07:01;;;;;;;3.72;2.75;;;18.50;99.90;;;;;;4998441;28;20069;-68
2023/07/25 00:09:47;;;;;;;8.25;3.50;;;18.50;99.90;;;;;;5010333;28;20061;-68
2023/07/25 00:12:34;;;;;;;4.78;2.78;;;18.40;99.90;;;;;;5006039;28;20495;-67
2023/07/25 00:15:21;;;;;;;4.20;2.80;;;18.40;99.90;;;;;;4996084;28;20121;-68
2023/07/25 00:18:07;;;;;;;5.97;2.63;;;18.40;99.90;;;;;;4995679;28;20065;-69
2023/07/25 00:20:52;;;;;;;4.68;2.70;;;18.40;99.90;;;;;;4992669;28;20056;-67
2023/07/25 00:23:38;;;;;;;3.75;2.38;;;18.40;99.90;;;;;;4993141;28;20097;-70
2023/07/25 00:26:24;;;;;;;11.77;2.38;;;18.40;99.90;;;;;;5000250;28;20034;-67
2023/07/25 00:29:10;;;;;;;4.50;2.80;;;18.40;99.90;;;;;;5011408;28;20487;-68
2023/07/25 00:31:56;;;;;;;4.65;2.60;;;18.40;99.90;;;;;;4997982;28;20034;-68
2023/07/25 00:34:42;;;;;;;4.05;2.58;;;18.40;99.90;;;;;;4992186;28;20053;-67
2023/07/25 00:37:29;;;;;;;4.97;2.78;;;18.40;99.90;;;;;;4994838;28;20158;-66
2023/07/25 00:40:15;;;;;;;4.82;2.40;;;18.30;99.90;;;;;;4984162;28;20092;-67
2023/07/25 00:43:01;;;;;;;4.53;2.25;;;18.30;99.90;;;;;;4994365;28;20495;-67
2023/07/25 00:45:47;;;;;;;3.50;2.53;;;18.30;99.90;;;;;;4992805;28;20042;-66
2023/07/25 00:48:33;;;;;;;3.70;2.28;;;18.30;99.90;;;;;;4998012;28;20418;-67
2023/07/25 00:51:19;;;;;;;4.38;2.55;;;18.20;99.90;;;;;;5005658;28;20059;-69
2023/07/25 00:54:05;;;;;;;4.00;2.42;;;18.20;99.90;;;;;;5012210;28;20180;-67
2023/07/25 00:56:51;;;;;;;5.03;2.75;;;18.20;99.90;;;;;;4994430;28;20081;-67
2023/07/25 00:59:37;;;;;;;4.88;2.67;;;18.20;99.90;;;;;;4998284;28;20149;-68
2023/07/25 01:02:23;;;;;;;4.18;2.58;;;18.20;99.90;;;;;;4996810;28;20141;-67
2023/07/25 01:05:09;;;;;;;3.40;2.55;;;18.10;99.90;;;;;;4998652;28;20498;-67
2023/07/25 01:07:55;;;;;;;4.45;2.65;;;18.20;99.90;;;;;;4999763;28;20049;-68
2023/07/25 01:10:41;;;;;;;4.22;2.78;;;18.10;99.90;;;;;;5006208;28;20058;-68
2023/07/25 01:13:27;;;;;;;3.60;2.50;;;18.10;99.90;;;;;;5006643;28;20037;-68
2023/07/25 01:16:17;;;;;;;3.75;2.47;;;18.20;99.90;;;;;;5011722;28;20045;-68
2023/07/25 01:19:03;;;;;;;8.98;3.33;;;18.10;99.90;;;;;;4992418;28;20058;-68
2023/07/25 01:21:49;;;;;;;6.32;2.70;;;18.10;99.90;;;;;;4994056;28;20053;-68
2023/07/25 01:24:42;;;;;;;4.25;2.90;;;18.10;99.90;;;;;;5011044;28;20073;-67
2023/07/25 01:27:28;;;;;;;4.30;2.70;;;18.10;99.90;;;;;;5004117;28;20045;-67
2023/07/25 01:30:14;;;;;;;4.03;2.60;;;18.00;99.90;;;;;;4991967;28;20138;-67
2023/07/25 01:33:00;;;;;;;4.22;2.50;;;18.00;99.90;;;;;;4991897;28;20104;-69
2023/07/25 01:35:46;;;;;;;3.80;2.95;;;18.00;99.90;;;;;;5008761;28;20469;-69
2023/07/25 01:38:32;;;;;;;4.30;2.97;;;18.00;99.90;;;;;;4991627;28;20054;-68
2023/07/25 01:41:17;;;;;;;4.95;3.10;;;18.00;99.90;;;;;;5011570;28;20478;-68
2023/07/25 01:44:03;;;;;;;4.93;2.95;;;17.90;99.90;;;;;;4991359;28;20050;-68
2023/07/25 01:46:49;;;;;;;5.25;2.80;;;17.90;99.90;;;;;;4992814;28;20565;-68
2023/07/25 01:49:35;;;;;;;5.93;2.95;;;17.90;99.90;;;;;;4999658;28;20065;-68
2023/07/25 01:52:21;;;;;;;6.05;3.33;;;17.90;99.90;;;;;;5009404;28;20042;-68
2023/07/25 01:55:08;;;;;;;4.82;3.85;;;17.90;99.90;;;;;;5008812;28;20093;-68
2023/07/25 01:57:54;;;;;;;5.47;3.50;;;17.90;99.90;;;;;;4992183;28;20046;-68
2023/07/25 02:00:40;;;;;;;5.90;3.22;;;17.90;99.90;;;;;;4996947;28;20049;-67
2023/07/25 02:03:26;;;;;;;4.68;3.17;;;17.90;99.90;;;;;;5010051;28;20070;-67
2023/07/25 02:06:12;;;;;;;5.43;2.88;;;17.90;99.90;;;;;;4992101;28;20046;-68
2023/07/25 02:08:58;;;;;;;9.30;4.10;;;18.00;99.90;;;;;;5008964;28;20053;-66
2023/07/25 02:11:44;;;;;;;5.43;3.20;;;17.90;99.90;;;;;;5000728;28;20030;-68
2023/07/25 02:14:30;;;;;;;5.15;3.42;;;17.90;99.90;;;;;;5010556;28;20039;-67
2023/07/25 02:17:19;;;;;;;6.57;3.60;;;17.90;99.90;;;;;;5005096;28;20042;-66
2023/07/25 02:20:06;;;;;;;7.25;3.50;;;17.80;99.90;;;;;;4994491;28;20099;-66
2023/07/25 02:22:52;;;;;;;6.40;3.55;;;17.80;99.90;;;;;;4991645;28;20057;-67
2023/07/25 02:25:38;;;;;;;5.50;3.35;;;17.80;99.90;;;;;;4991736;28;20042;-67
2023/07/25 02:28:23;;;;;;;6.53;3.60;;;17.80;99.90;;;;;;4995383;28;20037;-67
2023/07/25 02:31:09;;;;;;;6.30;3.65;;;17.80;99.90;;;;;;5011316;28;20053;-66
2023/07/25 02:33:55;;;;;;;5.65;3.65;;;17.80;99.90;;;;;;5009715;28;20041;-67
2023/07/25 02:36:42;;;;;;;6.15;3.30;;;17.80;99.90;;;;;;5009385;28;20573;-65
2023/07/25 02:39:28;;;;;;;5.60;3.85;;;17.80;99.90;;;;;;5009527;28;20104;-67
2023/07/25 02:42:14;;;;;;;7.13;3.92;;;17.90;99.90;;;;;;5009256;28;20038;-67
2023/07/25 02:45:00;;;;;;;5.78;3.75;;;17.90;99.90;;;;;;5010840;28;20413;-66
2023/07/25 02:47:46;;;;;;;5.90;3.63;;;17.90;99.90;;;;;;5000500;28;20908;-66
2023/07/25 02:50:32;;;;;;;6.13;3.67;;;18.00;99.90;;;;;;5003358;28;20502;-66
2023/07/25 02:53:18;;;;;;;8.68;3.83;;;18.00;99.90;;;;;;4996094;28;20072;-67
2023/07/25 02:56:04;;;;;;;5.20;3.53;;;18.00;99.90;;;;;;5001411;28;20049;-68
2023/07/25 02:58:50;;;;;;;5.60;3.72;;;18.00;99.90;;;;;;5008663;28;20049;-68
2023/07/25 03:01:36;;;;;;;5.45;4.03;;;18.10;99.90;;;;;;5009951;28;20046;-68
2023/07/25 03:04:22;;;;;;;9.35;3.90;;;18.10;99.90;;;;;;4989044;28;20097;-67
2023/07/25 03:07:08;;;;;;;9.18;3.90;;;18.00;99.90;;;;;;4996276;28;20048;-68
2023/07/25 03:09:54;;;;;;;6.80;3.92;;;18.10;99.90;;;;;;4990378;28;20046;-68
2023/07/25 03:12:40;;;;;;;8.80;3.85;;;18.10;99.90;;;;;;4996289;28;20034;-67
2023/07/25 03:15:26;;;;;;;6.93;5.22;;;18.10;99.90;;;;;;4989769;28;20411;-67
2023/07/25 03:18:11;;;;;;;7.22;4.70;;;18.00;99.90;;;;;;5002701;28;20476;-68
2023/07/25 03:20:57;;;;;;;7.25;4.30;;;18.00;99.90;;;;;;5008523;28;20153;-68
2023/07/25 03:23:43;;;;;;;6.35;4.45;;;18.00;99.90;;;;;;4992177;28;20072;-68
2023/07/25 03:26:29;;;;;;;8.00;4.18;;;17.90;99.90;;;;;;4988702;28;20057;-68
2023/07/25 03:29:15;;;;;;;7.13;3.80;;;17.80;99.90;;;;;;4996901;28;20054;-67
2023/07/25 03:32:01;;;;;;;7.38;4.25;;;17.70;99.90;;;;;;4994756;28;20384;-67
2023/07/25 03:34:47;;;;;;;7.35;4.40;;;17.70;99.90;;;;;;4989888;28;20419;-68
2023/07/25 03:37:33;;;;;;;8.45;4.05;;;17.70;99.90;;;;;;4997772;28;20546;-68
2023/07/25 03:40:19;;;;;;;5.05;3.30;;;17.70;99.90;;;;;;5008675;28;20042;-67
2023/07/25 03:43:05;;;;;;;7.10;3.88;;;17.70;99.90;;;;;;4992005;28;20057;-67
2023/07/25 03:45:51;;;;;;;5.95;2.80;;;17.70;99.90;;;;;;5021336;28;20067;-67
2023/07/25 03:48:37;;;;;;;5.15;3.80;;;17.60;99.90;;;;;;5013091;28;20660;-68
2023/07/25 03:51:23;;;;;;;4.25;3.55;;;17.60;99.90;;;;;;4993307;28;20400;-68
2023/07/25 03:54:09;;;;;;;5.00;2.85;;;17.60;99.90;;;;;;5007665;28;20041;-69
2023/07/25 03:56:54;;;;;;;5.10;3.10;;;17.60;99.90;;;;;;4994265;28;20050;-67
2023/07/25 03:59:40;;;;;;;5.32;3.15;;;17.60;99.90;;;;;;5009766;28;20135;-68
2023/07/25 04:02:27;;;;;;;4.93;3.00;;;17.70;99.90;;;;;;5004659;28;20038;-68
2023/07/25 04:05:14;;;;;;;4.97;3.78;;;17.70;99.90;;;;;;5008499;28;20088;-68
2023/07/25 04:08:00;;;;;;;7.10;3.25;;;17.70;99.90;;;;;;4997202;28;20042;-68
2023/07/25 04:10:46;;;;;;;4.57;2.88;;;17.70;99.90;;;;;;4988856;28;20059;-67
2023/07/25 04:13:32;;;;;;;5.78;2.88;;;17.60;99.90;;;;;;4990258;28;20085;-65
2023/07/25 04:16:17;;;;;;;4.03;2.90;;;17.50;99.90;;;;;;4976111;28;20043;-66
2023/07/25 04:19:03;;;;;;;5.60;3.10;;;17.50;99.90;;;;;;4990334;28;20049;-66
2023/07/25 04:21:49;;;;;;;8.80;3.47;;;17.50;99.90;;;;;;5001452;28;20072;-66
2023/07/25 04:24:35;;;;;;;9.38;3.08;;;17.50;99.90;;;;;;5007623;28;20069;-66
2023/07/25 04:27:21;;;;;;;6.88;3.72;;;17.50;99.90;;;;;;5001947;28;20034;-67
2023/07/25 04:30:08;;;;;;;6.90;3.50;;;17.60;99.90;;;;;;5008061;28;20046;-65
2023/07/25 04:32:54;;;;;;;5.78;3.28;;;17.60;99.90;;;;;;4997871;28;20530;-66
2023/07/25 04:35:42;;;;;;;4.72;3.22;;;17.70;99.90;;;;;;4995750;28;20082;-70
2023/07/25 04:38:27;;;;;;;4.82;3.30;;;17.70;99.90;;;;;;4989941;28;20129;-66
2023/07/25 04:41:13;;;;;;;4.82;3.10;;;17.70;99.90;;;;;;4988002;28;20054;-66
2023/07/25 04:43:59;;;;;;;6.10;3.75;;;17.70;99.90;;;;;;4991771;28;20038;-67
2023/07/25 04:46:45;;;;;;;6.40;2.92;;;17.60;99.90;;;;;;4994227;28;20046;-70
2023/07/25 04:49:31;;;;;;;6.15;3.22;;;17.60;99.90;;;;;;5011895;28;20046;-69
2023/07/25 04:52:17;;;;;;;6.05;2.50;;;17.60;99.90;;;;;;5003431;28;20042;-70
2023/07/25 04:55:03;;;;;;;7.40;3.28;;;17.50;99.90;;;;;;4993081;28;20089;-71
2023/07/25 04:57:50;;;;;;;6.78;2.97;;;17.60;99.90;;;;;;4992665;28;20150;-67
2023/07/25 05:00:36;;;;;;;5.45;3.58;;;17.70;99.90;;;;;;4997585;28;20045;-69
2023/07/25 05:03:22;;;;;;;4.65;2.78;;;17.70;99.90;;;;;;4995092;28;20041;-68
2023/07/25 05:06:08;;;;;;;6.50;3.35;;;17.80;99.90;;;;;;5002981;28;20049;-69
2023/07/25 05:08:54;;;;;;;10.23;3.03;;;17.80;99.90;;;;;;4993476;28;20503;-68
2023/07/25 05:11:39;;;;;;;5.78;3.17;;;17.80;99.90;;;;;;4993344;28;20451;-68
2023/07/25 05:14:25;;;;;;;7.03;3.47;;;17.80;99.90;;;;;;5010573;28;20108;-66
2023/07/25 05:17:11;;;;;;;5.78;3.03;;;17.80;99.90;;;;;;4993095;28;20403;-67
2023/07/25 05:19:57;;;;;;;4.82;3.00;;;17.90;99.90;;;;;;4996133;28;20082;-66
2023/07/25 05:22:43;;;;;;;5.88;3.00;;;17.80;99.90;;;;;;4994785;28;20093;-67
2023/07/25 05:25:29;;;;;;;9.63;3.03;;;17.90;99.90;;;;;;5002410;28;20096;-67
2023/07/25 05:28:18;;;;;;;6.40;2.60;;;17.90;99.90;;;;;;4999164;28;20040;-67
2023/07/25 05:31:04;;;;;;;6.20;3.20;;;17.90;99.90;;;;;;4992540;28;20034;-67
2023/07/25 05:33:50;;;;;;;6.28;2.40;;;17.90;99.90;;;;;;4994873;28;20483;-67
2023/07/25 05:36:36;;;;;;;5.70;3.00;;;17.90;99.90;;;;;;5000832;28;20093;-66
2023/07/25 05:39:22;;;;;;;4.63;2.92;;;18.00;99.90;;;;;;5010940;28;20053;-67
2023/07/25 05:42:08;;;;;;;5.80;2.58;;;18.00;99.90;;;;;;5002323;28;20080;-68
2023/07/25 05:44:54;;;;;;;5.13;2.35;;;18.00;99.90;;;;;;4992428;28;20046;-68
2023/07/25 05:47:40;;;;;;;7.38;2.30;;;18.00;99.90;;;;;;5009215;28;20491;-68
2023/07/25 05:50:26;;;;;;;9.23;3.28;;;18.10;99.90;;;;;;5011216;28;20053;-69
2023/07/25 05:53:12;;;;;;;7.32;2.35;;;18.20;99.90;;;;;;5002106;28;20566;-68
2023/07/25 05:55:58;;;;;;;4.75;2.10;;;18.20;99.90;;;;;;5009613;28;20049;-70
2023/07/25 05:58:44;;;;;;;4.53;2.05;;;18.30;99.90;;;;;;5009136;28;20092;-69
2023/07/25 06:01:30;;;;;;;4.28;1.92;;;18.40;99.90;;;;;;4999049;28;20054;-68
2023/07/25 06:04:17;;;;;;;4.00;2.20;;;18.50;99.90;;;;;;4991317;28;20042;-68
2023/07/25 06:07:03;;;;;;;4.80;2.30;;;18.60;99.90;;;;;;4991777;28;20065;-66
2023/07/25 06:09:49;;;;;;;4.45;2.83;;;18.70;99.90;;;;;;4993980;28;20097;-67
2023/07/25 06:12:35;;;;;;;6.95;2.53;;;18.70;99.90;;;;;;5000193;28;20061;-68
2023/07/25 06:15:21;;;;;;;4.30;2.05;;;18.70;99.90;;;;;;4994880;28;20456;-68
2023/07/25 06:18:07;;;;;;;6.03;2.47;;;18.70;99.90;;;;;;5003310;28;20046;-70
2023/07/25 06:20:53;;;;;;;4.80;2.22;;;18.80;99.90;;;;;;4989031;28;20462;-70
2023/07/25 06:23:39;;;;;;;6.63;2.30;;;18.90;99.90;;;;;;5009269;28;20045;-69
2023/07/25 06:26:25;;;;;;;6.82;2.22;;;19.00;99.90;;;;;;5003005;28;20046;-69
2023/07/25 06:29:11;;;;;;;4.22;1.98;;;19.00;99.90;;;;;;5004643;28;20060;-69
2023/07/25 06:31:57;;;;;;;5.32;2.72;;;19.00;99.90;;;;;;4997637;28;20050;-69
2023/07/25 06:34:43;;;;;;;3.72;2.30;;;19.10;99.90;;;;;;4992959;28;20050;-70
2023/07/25 06:37:29;;;;;;;9.65;2.30;;;19.20;99.90;;;;;;4992854;28;20042;-70
2023/07/25 06:40:14;;;;;;;5.68;1.98;;;19.20;99.90;;;;;;5005781;28;20120;-70
2023/07/25 06:43:00;;;;;;;6.30;2.33;;;19.30;99.90;;;;;;4991826;28;20050;-70
2023/07/25 06:45:50;;;;;;;8.38;2.33;;;19.30;99.90;;;;;;5004048;28;20046;-70
2023/07/25 06:48:36;;;;;;;8.68;2.55;;;19.30;99.90;;;;;;4994731;28;20041;-71
2023/07/25 06:51:22;;;;;;;6.45;2.58;;;19.30;99.90;;;;;;4990595;28;20050;-71
2023/07/25 06:54:08;;;;;;;6.28;2.17;;;19.30;99.90;;;;;;4997008;28;20042;-71
2023/07/25 06:56:53;;;;;;;5.30;2.75;;;19.40;99.90;;;;;;4991277;28;20491;-66
2023/07/25 06:59:39;;;;;;;4.55;2.10;;;19.40;99.90;;;;;;4992231;28;20041;-66
2023/07/25 07:02:25;;;;;;;4.93;2.28;;;19.50;99.90;;;;;;4995713;28;20418;-66
2023/07/25 07:05:11;;;;;;;5.47;2.13;;;19.40;99.20;;;;;;4995667;28;20099;-67
2023/07/25 07:07:58;;;;;;;5.60;2.33;;;19.40;99.40;;;;;;4992196;28;20089;-66
2023/07/25 07:10:44;;;;;;;3.53;1.85;;;19.40;99.40;;;;;;5002917;28;20120;-67
2023/07/25 07:13:30;;;;;;;15.93;3.65;;;19.60;99.30;;;;;;4999915;28;20041;-66
2023/07/25 07:16:16;;;;;;;5.05;2.60;;;19.70;99.40;;;;;;4998204;28;20509;-67
2023/07/25 07:19:02;;;;;;;7.63;2.80;;;19.80;99.20;;;;;;4991072;28;20525;-66
2023/07/25 07:21:48;;;;;;;4.57;2.47;;;19.80;98.70;;;;;;5001677;28;20050;-65
2023/07/25 07:24:34;;;;;;;6.93;2.35;;;19.90;99.00;;;;;;4990640;28;20487;-71
2023/07/25 07:27:20;;;;;;;8.13;2.88;;;20.00;98.90;;;;;;4992095;28;20398;-70
2023/07/25 07:30:06;;;;;;;7.07;2.72;;;20.10;98.90;;;;;;4993110;28;20534;-70
2023/07/25 07:32:52;;;;;;;8.05;2.50;;;20.10;98.50;;;;;;4990330;28;20050;-71
2023/07/25 07:35:38;;;;;;;41.95;8.85;;;20.10;98.20;;;;;;4997806;28;20096;-72
2023/07/25 07:38:24;;;;;;;5.68;2.25;;;20.10;98.20;;;;;;5007182;28;20073;-71
2023/07/25 07:41:10;;;;;;;6.03;1.90;;;20.10;97.50;;;;;;4989282;28;20068;-72
2023/07/25 07:43:56;;;;;;;18.17;3.90;;;20.10;97.30;;;;;;4991415;28;20459;-71
2023/07/25 07:46:42;;;;;;;28.75;6.07;;;20.20;97.50;;;;;;4990445;28;20046;-71
2023/07/25 07:49:28;;;;;;;31.63;5.40;;;20.30;97.60;;;;;;5008440;28;20119;-71
2023/07/25 07:52:14;;;;;;;11.40;3.38;;;20.40;97.60;;;;;;5008019;28;20060;-71
2023/07/25 07:55:00;;;;;;;12.90;2.95;;;20.40;97.30;;;;;;5009511;28;20034;-69
2023/07/25 07:57:46;;;;;;;10.23;3.28;;;20.40;97.10;;;;;;4997855;28;20046;-69
2023/07/25 08:00:32;;;;;;;15.20;4.28;;;20.50;96.90;;;;;;4988872;28;20038;-69
2023/07/25 08:03:18;;;;;;;10.88;4.35;;;20.60;96.90;;;;;;4992199;28;20137;-70
2023/07/25 08:06:04;;;;;;;41.35;7.47;;;20.60;96.60;;;;;;4989857;28;20078;-70
2023/07/25 08:08:50;;;;;;;17.98;2.95;;;20.60;96.40;;;;;;4989788;28;20209;-70
2023/07/25 08:11:36;;;;;;;6.60;2.28;;;20.70;96.30;;;;;;4991781;28;20054;-70
2023/07/25 08:14:22;;;;;;;9.32;2.40;;;20.80;96.30;;;;;;4997995;28;20063;-70
2023/07/25 08:17:08;;;;;;;8.88;3.17;;;20.90;96.10;;;;;;4996320;28;20077;-70
2023/07/25 08:19:54;;;;;;;7.45;2.05;;;21.00;95.80;;;;;;4992103;28;20399;-70
2023/07/25 08:22:40;;;;;;;4.05;1.90;;;21.10;95.40;;;;;;4999782;28;20085;-71
2023/07/25 08:25:25;;;;;;;46.30;8.98;;;21.10;95.20;;;;;;5004755;28;20056;-70
2023/07/25 08:28:11;;;;;;;25.70;5.60;;;21.10;95.10;;;;;;5000951;28;20037;-69
2023/07/25 08:30:59;;;;;;;21.00;3.75;;;21.00;94.60;;;;;;4992367;28;20057;-71
2023/07/25 08:33:45;;;;;;;4.13;1.92;;;21.00;94.40;;;;;;4994085;28;20042;-70
2023/07/25 08:36:31;;;;;;;15.65;3.58;;;20.90;93.90;;;;;;4991971;28;20049;-71
2023/07/25 08:39:17;;;;;;;19.15;4.07;;;21.00;94.30;;;;;;4992470;28;20466;-70
2023/07/25 08:42:05;;;;;;;24.17;6.15;;;21.00;94.20;;;;;;4992259;28;20656;-71
2023/07/25 08:44:52;;;;;;;21.75;5.30;;;21.00;93.80;;;;;;4991350;28;20042;-70
2023/07/25 08:47:41;;;;;;;9.90;3.13;;;21.00;93.50;;;;;;5003313;28;20049;-70
2023/07/25 08:50:29;;;;;;;5.45;2.78;;;21.10;93.50;;;;;;4994191;28;20058;-70
2023/07/25 08:53:15;;;;;;;3.25;1.77;;;21.20;93.50;;;;;;4993930;28;20449;-70
2023/07/25 08:56:02;;;;;;;4.20;1.92;;;21.30;93.10;;;;;;4993103;28;20081;-71
2023/07/25 08:58:50;;;;;;;8.15;2.47;;;21.40;92.40;;;;;;4994085;28;20505;-70
2023/07/25 09:01:37;;;;;;;9.02;2.10;;;21.40;92.50;;;;;;4999085;28;20042;-70
2023/07/25 09:04:25;;;;;;;16.85;4.20;;;21.40;91.90;;;;;;5001251;28;20043;-70
2023/07/25 09:07:11;;;;;;;16.55;3.13;;;21.30;92.30;;;;;;4992778;28;20545;-70
2023/07/25 09:09:58;;;;;;;3.58;1.63;;;21.40;92.30;;;;;;4992944;28;20442;-69
2023/07/25 09:12:44;;;;;;;4.80;1.90;;;21.50;92.00;;;;;;4993380;28;20100;-69
2023/07/25 09:15:30;;;;;;;3.78;1.45;;;21.70;91.90;;;;;;4991984;28;20128;-70
2023/07/25 09:18:16;;;;;;;2.50;1.80;;;21.80;91.70;;;;;;4989268;28;20490;-70
2023/07/25 09:21:03;;;;;;;3.58;1.65;;;22.00;91.80;;;;;;4991844;28;20053;-69
2023/07/25 09:23:53;;;;;;;1.80;1.25;;;22.10;91.50;;;;;;5003715;28;20498;-69
2023/07/25 09:26:39;;;;;;;4.13;1.67;;;22.20;91.40;;;;;;5002878;28;20046;-69
2023/07/25 09:29:28;;;;;;;111.50;19.23;;;22.20;90.60;;;;;;4991228;28;20065;-70
2023/07/25 09:32:23;;;;;;;41.22;8.45;;;22.30;91.10;;;;;;4997169;28;20045;-70
2023/07/25 09:35:11;;;;;;;7.68;2.83;;;22.40;91.10;;;;;;4999114;28;20061;-70
2023/07/25 09:37:57;;;;;;;7.65;2.72;;;22.60;90.90;;;;;;4993253;28;20419;-70
2023/07/25 09:40:48;;;;;;;7.18;2.90;;;22.70;90.70;;;;;;4991556;28;20050;-70
2023/07/25 09:43:34;;;;;;;13.88;2.92;;;22.80;90.80;;;;;;4993110;28;20041;-70
2023/07/25 09:46:19;;;;;;;5.03;2.30;;;22.90;90.70;;;;;;4991939;28;20047;-70
2023/07/25 09:49:05;;;;;;;7.05;2.40;;;23.00;90.20;;;;;;4991146;28;20404;-70
2023/07/25 09:52:04;;;;;;;8.38;3.15;;;23.10;89.70;;;;;;5006791;28;20069;-70
2023/07/25 09:54:50;;;;;;;16.70;3.17;;;23.10;88.80;;;;;;4998122;28;20103;-70
2023/07/25 09:57:36;;;;;;;3.53;1.83;;;23.10;90.10;;;;;;5008001;28;20084;-70
2023/07/25 10:00:22;;;;;;;3.30;1.80;;;23.20;90.10;;;;;;5003106;28;20038;-70
2023/07/25 10:03:09;;;;;;;2.58;1.52;;;23.30;89.60;;;;;;4992192;28;20042;-70
2023/07/25 10:05:56;;;;;;;4.07;2.42;;;23.40;89.40;;;;;;4991982;28;20129;-70
2023/07/25 10:08:43;;;;;;;7.47;2.03;;;23.50;89.20;;;;;;4993478;28;20046;-70
2023/07/25 10:11:30;;;;;;;4.82;1.90;;;23.70;89.10;;;;;;4990296;28;20046;-70
2023/07/25 10:14:16;;;;;;;3.85;2.00;;;23.80;89.20;;;;;;5007308;28;20049;-70
2023/07/25 10:17:02;;;;;;;6.72;1.60;;;23.80;88.20;;;;;;4994777;28;20049;-70
2023/07/25 10:19:54;;;;;;;5.65;1.52;;;23.90;87.40;;;;;;5004006;28;20038;-69
2023/07/25 10:22:42;;;;;;;3.13;1.33;;;23.80;84.40;;;;;;4994789;28;20077;-70
2023/07/25 10:25:37;;;;;;;2.72;1.52;;;23.80;85.90;;;;;;4996886;28;20429;-71
2023/07/25 10:28:52;;;;;;;7.57;1.92;;;23.80;85.10;;;;;;4992720;28;20081;-71
2023/07/25 10:31:50;;;;;;;5.18;1.85;;;23.90;85.80;;;;;;4991824;28;20064;-70
2023/07/25 10:34:46;;;;;;;2.38;1.50;;;24.00;85.20;;;;;;4990193;28;20054;-71
2023/07/25 10:37:36;;;;;;;1.88;1.38;;;24.10;84.70;;;;;;4998759;28;20041;-70
2023/07/25 10:40:24;;;;;;;3.50;1.70;;;24.20;84.20;;;;;;4997264;28;20137;-70
2023/07/25 10:43:09;;;;;;;2.65;1.77;;;24.30;84.60;;;;;;4999946;28;20049;-70
2023/07/25 10:45:59;;;;;;;3.88;1.80;;;24.30;84.20;;;;;;4994971;28;20403;-72
2023/07/25 10:48:50;;;;;;;6.78;2.03;;;24.50;83.70;;;;;;5007301;28;20399;-70
2023/07/25 10:51:53;;;;;;;9.00;2.65;;;24.50;83.80;;;;;;4993018;28;20049;-70
2023/07/25 10:55:03;;;;;;;3.67;1.80;;;24.50;83.60;;;;;;4990637;28;20042;-70
2023/07/25 10:58:11;;;;;;;4.55;1.73;;;24.60;82.70;;;;;;4991397;28;20287;-67
2023/07/25 11:00:58;;;;;;;2.15;1.25;;;24.60;81.50;;;;;;5002336;28;20053;-67
2023/07/25 11:03:44;;;;;;;12.63;3.50;;;24.50;81.40;;;;;;4992278;28;20049;-67
2023/07/25 11:06:33;;;;;;;16.30;4.32;;;24.50;81.30;;;;;;4991905;28;20042;-67
2023/07/25 11:09:21;;;;;;;10.15;3.20;;;24.40;81.40;;;;;;4995207;28;20061;-67
2023/07/25 11:12:10;;;;;;;4.28;1.60;;;24.50;82.30;;;;;;4992284;28;20482;-67
2023/07/25 11:14:56;;;;;;;13.05;1.83;;;24.60;81.80;;;;;;4990403;28;20507;-67
2023/07/25 11:17:42;;;;;;;4.68;1.60;;;24.50;80.50;;;;;;4997234;28;20046;-67
2023/07/25 11:20:28;;;;;;;4.25;1.85;;;24.40;80.70;;;;;;4995851;28;20046;-67
2023/07/25 11:23:18;;;;;;;2.70;1.88;;;24.30;79.70;;;;;;5003180;28;20417;-67
2023/07/25 11:26:07;;;;;;;7.13;1.83;;;24.20;79.30;;;;;;5003792;28;20077;-67
2023/07/25 11:28:53;;;;;;;1.67;1.20;;;24.10;79.20;;;;;;5008368;28;20521;-66
2023/07/25 11:31:45;;;;;;;2.25;1.55;;;24.00;79.80;;;;;;4990799;28;20094;-66
2023/07/25 11:34:31;;;;;;;3.55;1.60;;;23.90;79.50;;;;;;4995048;28;20038;-66
2023/07/25 11:37:17;;;;;;;2.00;1.42;;;23.80;79.80;;;;;;5003846;28;20053;-66
2023/07/25 11:40:19;;;;;;;1.98;1.50;;;23.70;80.00;;;;;;5001014;28;20050;-66
2023/07/25 11:43:12;;;;;;;23.00;3.75;;;23.70;80.10;;;;;;5001114;28;20141;-66
2023/07/25 11:45:59;;;;;;;21.23;3.90;;;23.70;79.20;;;;;;4993006;28;20411;-66
2023/07/25 11:48:45;;;;;;;5.97;2.25;;;23.70;79.80;;;;;;4998234;28;20030;-65
2023/07/25 11:51:32;;;;;;;6.72;2.20;;;23.70;79.50;;;;;;4997368;28;20072;-65
2023/07/25 11:54:19;;;;;;;6.40;1.77;;;23.80;79.90;;;;;;5012646;28;20049;-65
2023/07/25 11:57:08;;;;;;;2.47;1.17;;;23.80;78.50;;;;;;4997665;28;20057;-68
2023/07/25 11:59:55;;;;;;;13.20;3.42;;;23.70;78.00;;;;;;4996049;28;20517;-65
2023/07/25 12:02:42;;;;;;;21.02;4.68;;;23.60;78.30;;;;;;5006465;28;20092;-65
2023/07/25 12:05:30;;;;;;;11.13;2.67;;;23.60;79.10;;;;;;5005064;28;20078;-66
2023/07/25 12:08:32;;;;;;;5.75;1.60;;;23.70;79.30;;;;;;5002987;28;20418;-66
2023/07/25 12:11:18;;;;;;;9.68;2.50;;;23.70;77.80;;;;;;5004994;28;20116;-66
2023/07/25 12:14:12;;;;;;;8.32;2.17;;;23.70;78.50;;;;;;5012460;28;20764;-66
2023/07/25 12:17:02;;;;;;;10.13;2.78;;;23.80;77.80;;;;;;5004317;28;20125;-65
2023/07/25 12:19:56;;;;;;;45.60;7.72;;;23.70;77.50;;;;;;4980684;28;20475;-65
2023/07/25 12:22:43;;;;;;;3.40;1.65;;;23.70;78.00;;;;;;4995777;28;20066;-65
2023/07/25 12:25:29;;;;;;;14.65;2.83;;;23.60;78.20;;;;;;5003909;28;20107;-65
2023/07/25 12:28:15;;;;;;;13.63;2.80;;;23.70;78.20;;;;;;5006227;28;20097;-66
2023/07/25 12:31:01;;;;;;;6.43;1.70;;;23.80;77.80;;;;;;5014218;28;20080;-66
2023/07/25 12:33:50;;;;;;;4.78;1.70;;;24.00;76.80;;;;;;5003269;28;20433;-66
2023/07/25 12:36:36;;;;;;;2.10;1.40;;;24.10;76.70;;;;;;4994843;28;20579;-66
2023/07/25 12:39:22;;;;;;;6.50;1.77;;;24.20;76.00;;;;;;4999013;28;20038;-65
2023/07/25 12:42:08;;;;;;;2.33;1.45;;;24.40;75.40;;;;;;5001544;28;20046;-66
2023/07/25 12:44:58;;;;;;;6.15;1.77;;;24.50;74.10;;;;;;5000469;28;20507;-66
2023/07/25 12:47:43;;;;;;;3.50;1.55;;;24.50;73.10;;;;;;5004675;28;20046;-65
2023/07/25 12:50:30;;;;;;;3.33;1.50;;;24.50;72.30;;;;;;5010045;28;20562;-66
2023/07/25 12:53:16;;;;;;;2.92;2.03;;;24.40;73.30;;;;;;4997231;28;20136;-65
2023/07/25 12:56:02;;;;;;;5.20;1.98;;;24.20;73.30;;;;;;4996273;28;20527;-66
2023/07/25 12:58:48;;;;;;;5.72;2.10;;;24.10;73.50;;;;;;5009211;28;20034;-66
2023/07/25 13:01:34;;;;;;;3.75;1.90;;;23.90;73.10;;;;;;5009872;28;20041;-66
2023/07/25 13:04:20;;;;;;;11.55;2.63;;;23.70;73.60;;;;;;5001995;28;20530;-65
2023/07/25 13:07:06;;;;;;;3.63;1.92;;;23.70;74.40;;;;;;4992324;28;20030;-67
2023/07/25 13:09:56;;;;;;;5.60;1.60;;;23.70;74.00;;;;;;4992082;28;20117;-67
2023/07/25 13:12:41;;;;;;;2.72;1.48;;;23.60;74.00;;;;;;4985761;28;20132;-66
2023/07/25 13:15:27;;;;;;;8.35;2.95;;;23.60;74.40;;;;;;4990826;28;20512;-68
2023/07/25 13:18:13;;;;;;;5.15;2.00;;;23.60;73.60;;;;;;5003269;28;20394;-68
2023/07/25 13:20:59;;;;;;;7.50;2.25;;;23.50;74.10;;;;;;4998681;28;20124;-68
2023/07/25 13:23:45;;;;;;;5.05;1.55;;;23.70;75.00;;;;;;4994378;28;20124;-68
2023/07/25 13:26:31;;;;;;;5.75;1.65;;;24.00;74.20;;;;;;5004390;28;20050;-68
2023/07/25 13:29:17;;;;;;;4.50;1.80;;;24.00;74.40;;;;;;5006842;28;20061;-67
2023/07/25 13:32:03;;;;;;;9.63;2.88;;;24.00;73.80;;;;;;4996745;28;20046;-68
2023/07/25 13:34:50;;;;;;;4.85;1.50;;;24.00;74.70;;;;;;5006519;28;20085;-66
2023/07/25 13:37:36;;;;;;;13.32;2.25;;;23.90;73.70;;;;;;5003032;28;20148;-67
2023/07/25 13:40:22;;;;;;;2.13;1.45;;;23.80;73.60;;;;;;4998604;28;20121;-66
2023/07/25 13:43:08;;;;;;;7.47;2.03;;;23.80;74.10;;;;;;4992820;28;20046;-67
2023/07/25 13:45:54;;;;;;;6.57;2.00;;;23.80;73.90;;;;;;4991438;28;20039;-66
2023/07/25 13:48:39;;;;;;;5.20;2.33;;;23.70;74.00;;;;;;5007893;28;20053;-66
2023/07/25 13:51:25;;;;;;;4.90;1.98;;;23.80;74.40;;;;;;4995621;28;20065;-68
2023/07/25 13:54:13;;;;;;;6.30;1.70;;;23.80;74.20;;;;;;4993820;28;20050;-67
2023/07/25 13:56:59;;;;;;;8.48;2.75;;;23.80;73.00;;;;;;4995308;28;20440;-65
2023/07/25 13:59:46;;;;;;;6.03;2.33;;;23.80;72.40;;;;;;5009603;28;20487;-66
2023/07/25 14:02:32;;;;;;;3.33;1.95;;;24.10;72.00;;;;;;4995519;28;20053;-66
2023/07/25 14:05:18;;;;;;;1.83;1.23;;;24.30;71.10;;;;;;4990817;28;20030;-67
2023/07/25 14:08:07;;;;;;;3.22;1.42;;;24.50;71.50;;;;;;4995519;28;20417;-66
2023/07/25 14:10:53;;;;;;;2.58;1.92;;;24.60;70.70;;;;;;4991149;28;20057;-66
2023/07/25 14:13:39;;;;;;;2.97;1.15;;;24.70;70.30;;;;;;4995735;28;20042;-66
2023/07/25 14:16:24;;;;;;;2.88;1.27;;;24.70;69.60;;;;;;4990826;28;20096;-66
2023/07/25 14:19:10;;;;;;;2.53;1.10;;;24.80;68.80;;;;;;5009268;28;20415;-66
2023/07/25 14:21:56;;;;;;;1.83;1.15;;;24.80;69.20;;;;;;4993905;28;20503;-66
2023/07/25 14:24:42;;;;;;;2.33;1.58;;;24.90;68.90;;;;;;5009063;28;20060;-67
2023/07/25 14:27:28;;;;;;;5.60;1.40;;;25.10;67.80;;;;;;4995694;28;20046;-67